sensor_id;sensor_type;location;lat;lon;timestamp;P1;durP1;ratioP1;P2;durP2;ratioP2
2434;SDS011;1228;51.022;6.764;2023-08-01T00:00:11;2.60;;;2.50;;
2434;SDS011;1228;51.022;6.764;2023-08-01T00:02:37;2.60;;;2.50;;
2434;SDS011;1228;51.022;6.764;2023-08-01T00:05:04;2.80;;;2.60;;
2434;SDS011;1228;51.022;6.764;2023-08-01T00:07:29;3.63;;;2.80;;
2434;SDS011;1228;51.022;6.764;2023-08-01T00:09:55;2.60;;;2.43;;
2434;SDS011;1228;51.022;6.764;2023-08-01T00:12:21;2.70;;;2.60;;
2434;SDS011;1228;51.022;6.764;2023-08-01T00:14:46;2.83;;;2.63;;
2434;SDS011;1228;51.022;6.764;2023-08-01T00:17:12;2.87;;;2.67;;
2434;SDS011;1228;51.022;6.764;2023-08-01T00:19:38;3.10;;;2.87;;
2434;SDS011;1228;51.022;6.764;2023-08-01T00:22:03;2.73;;;2.60;;
2434;SDS011;1228;51.022;6.764;2023-08-01T00:24:29;2.90;;;2.70;;
2434;SDS011;1228;51.022;6.764;2023-08-01T00:26:55;3.27;;;2.50;;
2434;SDS011;1228;51.022;6.764;2023-08-01T00:29:21;3.03;;;2.73;;
2434;SDS011;1228;51.022;6.764;2023-08-01T00:31:47;3.13;;;2.93;;
2434;SDS011;1228;51.022;6.764;2023-08-01T00:34:13;3.30;;;2.70;;
2434;SDS011;1228;51.022;6.764;2023-08-01T00:36:38;3.20;;;2.90;;
2434;SDS011;1228;51.022;6.764;2023-08-01T00:39:04;3.20;;;3.00;;
2434;SDS011;1228;51.022;6.764;2023-08-01T00:41:29;5.23;;;3.00;;
2434;SDS011;1228;51.022;6.764;2023-08-01T00:43:55;3.30;;;3.00;;
2434;SDS011;1228;51.022;6.764;2023-08-01T00:46:21;3.23;;;2.97;;
2434;SDS011;1228;51.022;6.764;2023-08-01T00:48:46;3.23;;;3.03;;
2434;SDS011;1228;51.022;6.764;2023-08-01T00:51:12;2.83;;;2.73;;
2434;SDS011;1228;51.022;6.764;2023-08-01T00:53:39;3.03;;;2.83;;
2434;SDS011;1228;51.022;6.764;2023-08-01T00:56:05;3.00;;;2.80;;
2434;SDS011;1228;51.022;6.764;2023-08-01T00:58:30;2.80;;;2.70;;
2434;SDS011;1228;51.022;6.764;2023-08-01T01:00:56;3.43;;;2.53;;
2434;SDS011;1228;51.022;6.764;2023-08-01T01:03:22;2.90;;;2.50;;
2434;SDS011;1228;51.022;6.764;2023-08-01T01:08:32;3.83;;;2.60;;
2434;SDS011;1228;51.022;6.764;2023-08-01T01:10:58;6.00;;;2.80;;
2434;SDS011;1228;51.022;6.764;2023-08-01T01:13:23;2.53;;;2.43;;
2434;SDS011;1228;51.022;6.764;2023-08-01T01:15:49;2.77;;;2.57;;
2434;SDS011;1228;51.022;6.764;2023-08-01T01:18:14;2.50;;;2.40;;
2434;SDS011;1228;51.022;6.764;2023-08-01T01:20:40;4.13;;;2.67;;
2434;SDS011;1228;51.022;6.764;2023-08-01T01:23:06;2.90;;;2.70;;
2434;SDS011;1228;51.022;6.764;2023-08-01T01:25:34;2.87;;;2.60;;
2434;SDS011;1228;51.022;6.764;2023-08-01T01:28:01;2.90;;;2.70;;
2434;SDS011;1228;51.022;6.764;2023-08-01T01:30:30;2.67;;;2.57;;
2434;SDS011;1228;51.022;6.764;2023-08-01T01:32:58;3.23;;;3.00;;
2434;SDS011;1228;51.022;6.764;2023-08-01T01:35:25;3.17;;;2.97;;
2434;SDS011;1228;51.022;6.764;2023-08-01T01:37:50;3.10;;;2.90;;
2434;SDS011;1228;51.022;6.764;2023-08-01T01:40:16;3.00;;;2.87;;
2434;SDS011;1228;51.022;6.764;2023-08-01T01:42:42;3.97;;;2.70;;
2434;SDS011;1228;51.022;6.764;2023-08-01T01:45:07;2.60;;;2.40;;
2434;SDS011;1228;51.022;6.764;2023-08-01T01:47:33;2.93;;;2.80;;
2434;SDS011;1228;51.022;6.764;2023-08-01T01:49:59;2.80;;;2.60;;
2434;SDS011;1228;51.022;6.764;2023-08-01T01:52:24;2.40;;;2.30;;
2434;SDS011;1228;51.022;6.764;2023-08-01T01:54:50;2.50;;;2.40;;
2434;SDS011;1228;51.022;6.764;2023-08-01T01:57:15;2.40;;;2.30;;
2434;SDS011;1228;51.022;6.764;2023-08-01T01:59:41;2.60;;;2.50;;
2434;SDS011;1228;51.022;6.764;2023-08-01T02:02:07;2.70;;;2.60;;
2434;SDS011;1228;51.022;6.764;2023-08-01T02:04:32;4.23;;;2.50;;
2434;SDS011;1228;51.022;6.764;2023-08-01T02:06:58;2.90;;;2.70;;
2434;SDS011;1228;51.022;6.764;2023-08-01T02:09:23;2.80;;;2.60;;
2434;SDS011;1228;51.022;6.764;2023-08-01T02:11:49;4.13;;;2.93;;
2434;SDS011;1228;51.022;6.764;2023-08-01T02:14:15;3.20;;;2.90;;
2434;SDS011;1228;51.022;6.764;2023-08-01T02:16:41;3.17;;;2.97;;
2434;SDS011;1228;51.022;6.764;2023-08-01T02:19:06;3.13;;;2.93;;
2434;SDS011;1228;51.022;6.764;2023-08-01T02:21:32;3.70;;;3.23;;
2434;SDS011;1228;51.022;6.764;2023-08-01T02:23:57;3.30;;;3.00;;
2434;SDS011;1228;51.022;6.764;2023-08-01T02:26:23;3.50;;;3.30;;
2434;SDS011;1228;51.022;6.764;2023-08-01T02:28:49;3.57;;;3.27;;
2434;SDS011;1228;51.022;6.764;2023-08-01T02:31:15;3.37;;;3.17;;
2434;SDS011;1228;51.022;6.764;2023-08-01T02:33:41;4.17;;;3.10;;
2434;SDS011;1228;51.022;6.764;2023-08-01T02:36:07;3.90;;;3.50;;
2434;SDS011;1228;51.022;6.764;2023-08-01T02:38:32;3.60;;;3.40;;
2434;SDS011;1228;51.022;6.764;2023-08-01T02:40:58;4.13;;;2.97;;
2434;SDS011;1228;51.022;6.764;2023-08-01T02:43:24;4.13;;;3.50;;
2434;SDS011;1228;51.022;6.764;2023-08-01T02:45:49;3.40;;;3.10;;
2434;SDS011;1228;51.022;6.764;2023-08-01T02:48:15;3.30;;;3.10;;
2434;SDS011;1228;51.022;6.764;2023-08-01T02:50:41;3.87;;;3.60;;
2434;SDS011;1228;51.022;6.764;2023-08-01T02:53:07;4.40;;;3.80;;
2434;SDS011;1228;51.022;6.764;2023-08-01T02:55:32;4.30;;;4.00;;
2434;SDS011;1228;51.022;6.764;2023-08-01T02:57:58;4.37;;;3.83;;
2434;SDS011;1228;51.022;6.764;2023-08-01T03:00:24;4.80;;;4.30;;
2434;SDS011;1228;51.022;6.764;2023-08-01T03:02:50;4.60;;;4.20;;
2434;SDS011;1228;51.022;6.764;2023-08-01T03:05:16;5.27;;;4.77;;
2434;SDS011;1228;51.022;6.764;2023-08-01T03:07:42;6.23;;;4.87;;
2434;SDS011;1228;51.022;6.764;2023-08-01T03:10:07;6.03;;;5.43;;
2434;SDS011;1228;51.022;6.764;2023-08-01T03:12:34;5.80;;;5.30;;
2434;SDS011;1228;51.022;6.764;2023-08-01T03:15:00;5.97;;;5.47;;
2434;SDS011;1228;51.022;6.764;2023-08-01T03:17:26;6.87;;;6.17;;
2434;SDS011;1228;51.022;6.764;2023-08-01T03:19:51;8.10;;;7.30;;
2434;SDS011;1228;51.022;6.764;2023-08-01T03:22:17;8.10;;;6.80;;
2434;SDS011;1228;51.022;6.764;2023-08-01T03:24:43;13.83;;;7.33;;
2434;SDS011;1228;51.022;6.764;2023-08-01T03:27:08;8.60;;;7.50;;
2434;SDS011;1228;51.022;6.764;2023-08-01T03:29:34;11.43;;;7.70;;
2434;SDS011;1228;51.022;6.764;2023-08-01T03:32:00;9.83;;;7.70;;
2434;SDS011;1228;51.022;6.764;2023-08-01T03:34:25;8.73;;;7.57;;
2434;SDS011;1228;51.022;6.764;2023-08-01T03:36:51;10.27;;;8.47;;
2434;SDS011;1228;51.022;6.764;2023-08-01T03:39:17;11.60;;;8.70;;
2434;SDS011;1228;51.022;6.764;2023-08-01T03:41:43;11.37;;;8.77;;
2434;SDS011;1228;51.022;6.764;2023-08-01T03:44:08;12.17;;;10.20;;
2434;SDS011;1228;51.022;6.764;2023-08-01T03:46:34;12.10;;;8.77;;
2434;SDS011;1228;51.022;6.764;2023-08-01T03:49:00;13.17;;;9.57;;
2434;SDS011;1228;51.022;6.764;2023-08-01T03:51:25;16.03;;;10.13;;
2434;SDS011;1228;51.022;6.764;2023-08-01T03:53:51;12.47;;;11.07;;
2434;SDS011;1228;51.022;6.764;2023-08-01T03:56:16;15.03;;;11.23;;
2434;SDS011;1228;51.022;6.764;2023-08-01T03:58:42;13.80;;;10.73;;
2434;SDS011;1228;51.022;6.764;2023-08-01T04:01:07;18.20;;;11.27;;
2434;SDS011;1228;51.022;6.764;2023-08-01T04:03:33;20.87;;;11.83;;
2434;SDS011;1228;51.022;6.764;2023-08-01T04:05:59;19.20;;;11.53;;
2434;SDS011;1228;51.022;6.764;2023-08-01T04:08:24;15.37;;;11.10;;
2434;SDS011;1228;51.022;6.764;2023-08-01T04:10:50;18.30;;;11.00;;
2434;SDS011;1228;51.022;6.764;2023-08-01T04:13:16;14.77;;;10.23;;
2434;SDS011;1228;51.022;6.764;2023-08-01T04:15:41;14.87;;;10.60;;
2434;SDS011;1228;51.022;6.764;2023-08-01T04:18:07;13.37;;;10.33;;
2434;SDS011;1228;51.022;6.764;2023-08-01T04:20:32;12.60;;;10.03;;
2434;SDS011;1228;51.022;6.764;2023-08-01T04:22:58;13.73;;;9.03;;
2434;SDS011;1228;51.022;6.764;2023-08-01T04:25:24;16.37;;;10.50;;
2434;SDS011;1228;51.022;6.764;2023-08-01T04:27:51;13.73;;;9.33;;
2434;SDS011;1228;51.022;6.764;2023-08-01T04:30:17;13.93;;;9.40;;
2434;SDS011;1228;51.022;6.764;2023-08-01T04:32:43;12.27;;;9.43;;
2434;SDS011;1228;51.022;6.764;2023-08-01T04:35:08;11.00;;;7.90;;
2434;SDS011;1228;51.022;6.764;2023-08-01T04:37:34;12.63;;;8.77;;
2434;SDS011;1228;51.022;6.764;2023-08-01T04:40:00;9.93;;;8.20;;
2434;SDS011;1228;51.022;6.764;2023-08-01T04:42:25;15.83;;;9.63;;
2434;SDS011;1228;51.022;6.764;2023-08-01T04:44:52;16.27;;;9.63;;
2434;SDS011;1228;51.022;6.764;2023-08-01T04:47:18;15.63;;;9.63;;
2434;SDS011;1228;51.022;6.764;2023-08-01T04:49:44;15.30;;;9.20;;
2434;SDS011;1228;51.022;6.764;2023-08-01T04:52:09;13.33;;;9.87;;
2434;SDS011;1228;51.022;6.764;2023-08-01T04:54:35;14.60;;;9.13;;
2434;SDS011;1228;51.022;6.764;2023-08-01T04:57:01;16.30;;;9.67;;
2434;SDS011;1228;51.022;6.764;2023-08-01T04:59:26;17.73;;;9.50;;
2434;SDS011;1228;51.022;6.764;2023-08-01T05:01:52;16.67;;;9.17;;
2434;SDS011;1228;51.022;6.764;2023-08-01T05:04:18;13.90;;;9.73;;
2434;SDS011;1228;51.022;6.764;2023-08-01T05:06:43;13.27;;;9.23;;
2434;SDS011;1228;51.022;6.764;2023-08-01T05:09:09;18.30;;;10.30;;
2434;SDS011;1228;51.022;6.764;2023-08-01T05:11:34;14.40;;;9.43;;
2434;SDS011;1228;51.022;6.764;2023-08-01T05:14:00;12.00;;;9.30;;
2434;SDS011;1228;51.022;6.764;2023-08-01T05:16:26;20.57;;;10.70;;
2434;SDS011;1228;51.022;6.764;2023-08-01T05:18:51;13.13;;;9.90;;
2434;SDS011;1228;51.022;6.764;2023-08-01T05:21:17;12.87;;;9.03;;
2434;SDS011;1228;51.022;6.764;2023-08-01T05:23:43;12.20;;;8.63;;
2434;SDS011;1228;51.022;6.764;2023-08-01T05:26:08;13.77;;;9.13;;
2434;SDS011;1228;51.022;6.764;2023-08-01T05:28:34;15.30;;;8.70;;
2434;SDS011;1228;51.022;6.764;2023-08-01T05:30:59;12.43;;;8.37;;
2434;SDS011;1228;51.022;6.764;2023-08-01T05:33:25;13.13;;;9.67;;
2434;SDS011;1228;51.022;6.764;2023-08-01T05:35:50;15.87;;;9.27;;
2434;SDS011;1228;51.022;6.764;2023-08-01T05:38:16;12.87;;;8.27;;
2434;SDS011;1228;51.022;6.764;2023-08-01T05:40:42;11.53;;;8.60;;
2434;SDS011;1228;51.022;6.764;2023-08-01T05:43:07;15.20;;;8.20;;
2434;SDS011;1228;51.022;6.764;2023-08-01T05:45:34;13.33;;;8.77;;
2434;SDS011;1228;51.022;6.764;2023-08-01T05:48:00;15.20;;;8.20;;
2434;SDS011;1228;51.022;6.764;2023-08-01T05:50:26;19.00;;;8.53;;
2434;SDS011;1228;51.022;6.764;2023-08-01T05:52:52;11.70;;;7.63;;
2434;SDS011;1228;51.022;6.764;2023-08-01T05:55:18;15.83;;;8.73;;
2434;SDS011;1228;51.022;6.764;2023-08-01T05:57:43;16.33;;;8.37;;
2434;SDS011;1228;51.022;6.764;2023-08-01T06:00:09;10.07;;;8.07;;
2434;SDS011;1228;51.022;6.764;2023-08-01T06:02:36;10.40;;;7.53;;
2434;SDS011;1228;51.022;6.764;2023-08-01T06:05:01;12.50;;;7.57;;
2434;SDS011;1228;51.022;6.764;2023-08-01T06:07:27;11.80;;;7.93;;
2434;SDS011;1228;51.022;6.764;2023-08-01T06:09:52;12.17;;;7.80;;
2434;SDS011;1228;51.022;6.764;2023-08-01T06:12:18;11.57;;;6.87;;
2434;SDS011;1228;51.022;6.764;2023-08-01T06:14:44;8.80;;;7.17;;
2434;SDS011;1228;51.022;6.764;2023-08-01T06:17:11;9.40;;;6.67;;
2434;SDS011;1228;51.022;6.764;2023-08-01T06:19:36;9.67;;;7.63;;
2434;SDS011;1228;51.022;6.764;2023-08-01T06:22:02;9.27;;;6.80;;
2434;SDS011;1228;51.022;6.764;2023-08-01T06:24:27;10.67;;;6.47;;
2434;SDS011;1228;51.022;6.764;2023-08-01T06:26:53;6.87;;;5.30;;
2434;SDS011;1228;51.022;6.764;2023-08-01T06:29:19;8.60;;;5.77;;
2434;SDS011;1228;51.022;6.764;2023-08-01T06:31:44;8.23;;;7.20;;
2434;SDS011;1228;51.022;6.764;2023-08-01T06:34:10;8.97;;;6.13;;
2434;SDS011;1228;51.022;6.764;2023-08-01T06:36:36;5.23;;;4.80;;
2434;SDS011;1228;51.022;6.764;2023-08-01T06:39:01;9.07;;;5.93;;
2434;SDS011;1228;51.022;6.764;2023-08-01T06:41:28;6.23;;;5.20;;
2434;SDS011;1228;51.022;6.764;2023-08-01T06:43:53;10.20;;;5.47;;
2434;SDS011;1228;51.022;6.764;2023-08-01T06:46:19;15.63;;;5.77;;
2434;SDS011;1228;51.022;6.764;2023-08-01T06:48:45;5.63;;;5.10;;
2434;SDS011;1228;51.022;6.764;2023-08-01T06:51:10;7.67;;;5.03;;
2434;SDS011;1228;51.022;6.764;2023-08-01T06:53:36;9.80;;;5.33;;
2434;SDS011;1228;51.022;6.764;2023-08-01T06:56:01;7.57;;;5.10;;
2434;SDS011;1228;51.022;6.764;2023-08-01T06:58:27;8.37;;;5.90;;
2434;SDS011;1228;51.022;6.764;2023-08-01T07:00:53;6.97;;;5.40;;
2434;SDS011;1228;51.022;6.764;2023-08-01T07:03:18;7.47;;;5.93;;
2434;SDS011;1228;51.022;6.764;2023-08-01T07:05:44;10.90;;;5.83;;
2434;SDS011;1228;51.022;6.764;2023-08-01T07:08:09;7.77;;;5.73;;
2434;SDS011;1228;51.022;6.764;2023-08-01T07:10:35;8.30;;;5.10;;
2434;SDS011;1228;51.022;6.764;2023-08-01T07:13:01;11.43;;;4.93;;
2434;SDS011;1228;51.022;6.764;2023-08-01T07:15:29;8.70;;;5.43;;
2434;SDS011;1228;51.022;6.764;2023-08-01T07:17:55;9.90;;;5.40;;
2434;SDS011;1228;51.022;6.764;2023-08-01T07:20:21;8.00;;;4.90;;
2434;SDS011;1228;51.022;6.764;2023-08-01T07:22:47;6.50;;;4.63;;
2434;SDS011;1228;51.022;6.764;2023-08-01T07:25:12;8.83;;;4.73;;
2434;SDS011;1228;51.022;6.764;2023-08-01T07:27:38;8.90;;;5.03;;
2434;SDS011;1228;51.022;6.764;2023-08-01T07:30:04;4.70;;;4.17;;
2434;SDS011;1228;51.022;6.764;2023-08-01T07:32:30;8.13;;;4.80;;
2434;SDS011;1228;51.022;6.764;2023-08-01T07:34:56;8.13;;;5.47;;
2434;SDS011;1228;51.022;6.764;2023-08-01T07:37:22;10.03;;;4.83;;
2434;SDS011;1228;51.022;6.764;2023-08-01T07:39:49;8.13;;;5.13;;
2434;SDS011;1228;51.022;6.764;2023-08-01T07:42:15;12.50;;;5.00;;
2434;SDS011;1228;51.022;6.764;2023-08-01T07:44:40;6.83;;;5.03;;
2434;SDS011;1228;51.022;6.764;2023-08-01T07:47:06;6.37;;;3.90;;
2434;SDS011;1228;51.022;6.764;2023-08-01T07:49:31;13.00;;;4.67;;
2434;SDS011;1228;51.022;6.764;2023-08-01T07:51:58;11.53;;;5.13;;
2434;SDS011;1228;51.022;6.764;2023-08-01T07:54:24;7.33;;;4.33;;
2434;SDS011;1228;51.022;6.764;2023-08-01T07:56:50;6.33;;;4.17;;
2434;SDS011;1228;51.022;6.764;2023-08-01T07:59:15;6.23;;;4.83;;
2434;SDS011;1228;51.022;6.764;2023-08-01T08:01:41;5.90;;;4.03;;
2434;SDS011;1228;51.022;6.764;2023-08-01T08:04:07;8.27;;;4.87;;
2434;SDS011;1228;51.022;6.764;2023-08-01T08:06:32;6.33;;;4.40;;
2434;SDS011;1228;51.022;6.764;2023-08-01T08:08:58;4.93;;;4.13;;
2434;SDS011;1228;51.022;6.764;2023-08-01T08:11:23;5.10;;;3.87;;
2434;SDS011;1228;51.022;6.764;2023-08-01T08:13:49;5.20;;;4.10;;
2434;SDS011;1228;51.022;6.764;2023-08-01T08:16:15;5.10;;;4.10;;
2434;SDS011;1228;51.022;6.764;2023-08-01T08:18:41;10.60;;;4.30;;
2434;SDS011;1228;51.022;6.764;2023-08-01T08:21:06;5.53;;;5.03;;
2434;SDS011;1228;51.022;6.764;2023-08-01T08:23:32;8.03;;;4.60;;
2434;SDS011;1228;51.022;6.764;2023-08-01T08:25:58;8.23;;;4.60;;
2434;SDS011;1228;51.022;6.764;2023-08-01T08:28:27;5.93;;;4.83;;
2434;SDS011;1228;51.022;6.764;2023-08-01T08:30:55;5.67;;;5.17;;
2434;SDS011;1228;51.022;6.764;2023-08-01T08:33:21;4.70;;;4.27;;
2434;SDS011;1228;51.022;6.764;2023-08-01T08:35:47;5.20;;;4.70;;
2434;SDS011;1228;51.022;6.764;2023-08-01T08:38:13;7.83;;;4.77;;
2434;SDS011;1228;51.022;6.764;2023-08-01T08:40:40;5.70;;;4.23;;
2434;SDS011;1228;51.022;6.764;2023-08-01T08:43:08;5.03;;;4.13;;
2434;SDS011;1228;51.022;6.764;2023-08-01T08:45:35;8.87;;;4.90;;
2434;SDS011;1228;51.022;6.764;2023-08-01T08:48:08;9.53;;;4.83;;
2434;SDS011;1228;51.022;6.764;2023-08-01T08:50:37;7.43;;;4.30;;
2434;SDS011;1228;51.022;6.764;2023-08-01T08:53:03;5.57;;;4.10;;
2434;SDS011;1228;51.022;6.764;2023-08-01T08:55:37;8.33;;;4.40;;
2434;SDS011;1228;51.022;6.764;2023-08-01T08:58:02;5.00;;;4.17;;
2434;SDS011;1228;51.022;6.764;2023-08-01T09:00:29;8.10;;;3.77;;
2434;SDS011;1228;51.022;6.764;2023-08-01T09:02:55;5.30;;;4.00;;
2434;SDS011;1228;51.022;6.764;2023-08-01T09:05:22;5.75;;;3.72;;
2434;SDS011;1228;51.022;6.764;2023-08-01T09:07:52;4.70;;;3.53;;
2434;SDS011;1228;51.022;6.764;2023-08-01T09:10:21;5.90;;;4.10;;
2434;SDS011;1228;51.022;6.764;2023-08-01T09:12:47;5.53;;;4.70;;
2434;SDS011;1228;51.022;6.764;2023-08-01T09:15:14;7.63;;;4.10;;
2434;SDS011;1228;51.022;6.764;2023-08-01T09:17:49;4.90;;;3.70;;
2434;SDS011;1228;51.022;6.764;2023-08-01T09:20:15;4.27;;;3.80;;
2434;SDS011;1228;51.022;6.764;2023-08-01T09:22:42;6.18;;;4.13;;
2434;SDS011;1228;51.022;6.764;2023-08-01T09:25:09;5.22;;;3.33;;
2434;SDS011;1228;51.022;6.764;2023-08-01T09:27:35;4.80;;;3.90;;
2434;SDS011;1228;51.022;6.764;2023-08-01T09:32:38;4.13;;;3.72;;
2434;SDS011;1228;51.022;6.764;2023-08-01T09:35:04;3.50;;;3.20;;
2434;SDS011;1228;51.022;6.764;2023-08-01T09:37:40;6.60;;;3.80;;
2434;SDS011;1228;51.022;6.764;2023-08-01T09:40:07;4.15;;;3.78;;
2434;SDS011;1228;51.022;6.764;2023-08-01T09:42:40;4.38;;;3.70;;
2434;SDS011;1228;51.022;6.764;2023-08-01T09:45:16;5.15;;;3.20;;
2434;SDS011;1228;51.022;6.764;2023-08-01T09:47:43;3.83;;;3.30;;
2434;SDS011;1228;51.022;6.764;2023-08-01T09:50:10;5.55;;;3.28;;
2434;SDS011;1228;51.022;6.764;2023-08-01T09:52:38;6.70;;;3.78;;
2434;SDS011;1228;51.022;6.764;2023-08-01T09:55:04;3.45;;;3.15;;
2434;SDS011;1228;51.022;6.764;2023-08-01T09:57:30;4.70;;;3.85;;
2434;SDS011;1228;51.022;6.764;2023-08-01T09:59:56;3.65;;;3.25;;
2434;SDS011;1228;51.022;6.764;2023-08-01T10:02:24;3.90;;;3.60;;
2434;SDS011;1228;51.022;6.764;2023-08-01T10:04:52;5.47;;;3.92;;
2434;SDS011;1228;51.022;6.764;2023-08-01T10:07:21;5.70;;;3.42;;
2434;SDS011;1228;51.022;6.764;2023-08-01T10:09:51;4.65;;;4.00;;
2434;SDS011;1228;51.022;6.764;2023-08-01T10:12:19;4.72;;;3.60;;
2434;SDS011;1228;51.022;6.764;2023-08-01T10:14:47;3.80;;;3.22;;
2434;SDS011;1228;51.022;6.764;2023-08-01T10:17:13;3.65;;;3.30;;
2434;SDS011;1228;51.022;6.764;2023-08-01T10:19:40;3.25;;;3.05;;
2434;SDS011;1228;51.022;6.764;2023-08-01T10:22:07;3.63;;;3.33;;
2434;SDS011;1228;51.022;6.764;2023-08-01T10:24:33;4.72;;;4.05;;
2434;SDS011;1228;51.022;6.764;2023-08-01T10:27:13;3.90;;;3.60;;
2434;SDS011;1228;51.022;6.764;2023-08-01T10:29:40;5.55;;;4.15;;
2434;SDS011;1228;51.022;6.764;2023-08-01T10:32:07;8.73;;;4.07;;
2434;SDS011;1228;51.022;6.764;2023-08-01T10:34:33;10.23;;;4.03;;
2434;SDS011;1228;51.022;6.764;2023-08-01T10:36:59;5.30;;;3.40;;
2434;SDS011;1228;51.022;6.764;2023-08-01T10:39:26;5.28;;;4.28;;
2434;SDS011;1228;51.022;6.764;2023-08-01T10:41:56;4.90;;;3.85;;
2434;SDS011;1228;51.022;6.764;2023-08-01T10:44:26;6.32;;;3.50;;
2434;SDS011;1228;51.022;6.764;2023-08-01T10:46:56;3.53;;;3.20;;
2434;SDS011;1228;51.022;6.764;2023-08-01T10:49:39;3.70;;;2.83;;
2434;SDS011;1228;51.022;6.764;2023-08-01T10:52:18;3.30;;;3.10;;
2434;SDS011;1228;51.022;6.764;2023-08-01T10:54:45;3.83;;;3.53;;
2434;SDS011;1228;51.022;6.764;2023-08-01T10:57:17;3.85;;;3.20;;
2434;SDS011;1228;51.022;6.764;2023-08-01T10:59:44;3.65;;;2.60;;
2434;SDS011;1228;51.022;6.764;2023-08-01T11:02:10;3.50;;;3.20;;
2434;SDS011;1228;51.022;6.764;2023-08-01T11:04:35;4.55;;;3.10;;
2434;SDS011;1228;51.022;6.764;2023-08-01T11:07:01;3.55;;;3.25;;
2434;SDS011;1228;51.022;6.764;2023-08-01T11:09:29;3.40;;;2.90;;
2434;SDS011;1228;51.022;6.764;2023-08-01T11:11:56;4.18;;;3.00;;
2434;SDS011;1228;51.022;6.764;2023-08-01T11:14:24;4.60;;;3.20;;
2434;SDS011;1228;51.022;6.764;2023-08-01T11:16:51;4.82;;;2.88;;
2434;SDS011;1228;51.022;6.764;2023-08-01T11:19:25;3.63;;;2.38;;
2434;SDS011;1228;51.022;6.764;2023-08-01T11:21:54;4.78;;;3.85;;
2434;SDS011;1228;51.022;6.764;2023-08-01T11:24:22;6.97;;;3.45;;
2434;SDS011;1228;51.022;6.764;2023-08-01T11:26:49;4.43;;;3.40;;
2434;SDS011;1228;51.022;6.764;2023-08-01T11:29:16;4.50;;;2.90;;
2434;SDS011;1228;51.022;6.764;2023-08-01T11:31:53;6.53;;;4.03;;
2434;SDS011;1228;51.022;6.764;2023-08-01T11:34:23;10.25;;;3.50;;
2434;SDS011;1228;51.022;6.764;2023-08-01T11:36:49;6.75;;;3.63;;
2434;SDS011;1228;51.022;6.764;2023-08-01T11:39:15;6.88;;;3.90;;
2434;SDS011;1228;51.022;6.764;2023-08-01T11:41:42;6.13;;;3.22;;
2434;SDS011;1228;51.022;6.764;2023-08-01T11:44:08;3.78;;;3.15;;
2434;SDS011;1228;51.022;6.764;2023-08-01T11:46:36;3.17;;;2.88;;
2434;SDS011;1228;51.022;6.764;2023-08-01T11:49:03;2.92;;;2.70;;
2434;SDS011;1228;51.022;6.764;2023-08-01T11:51:38;4.95;;;3.50;;
2434;SDS011;1228;51.022;6.764;2023-08-01T11:54:05;3.72;;;3.08;;
2434;SDS011;1228;51.022;6.764;2023-08-01T11:56:32;3.20;;;2.78;;
2434;SDS011;1228;51.022;6.764;2023-08-01T11:58:58;3.83;;;3.08;;
2434;SDS011;1228;51.022;6.764;2023-08-01T12:01:24;3.97;;;2.72;;
2434;SDS011;1228;51.022;6.764;2023-08-01T12:03:51;4.57;;;3.05;;
2434;SDS011;1228;51.022;6.764;2023-08-01T12:06:19;3.70;;;2.80;;
2434;SDS011;1228;51.022;6.764;2023-08-01T12:08:50;3.15;;;2.85;;
2434;SDS011;1228;51.022;6.764;2023-08-01T12:11:20;3.40;;;3.10;;
2434;SDS011;1228;51.022;6.764;2023-08-01T12:13:46;3.47;;;3.13;;
2434;SDS011;1228;51.022;6.764;2023-08-01T12:16:13;4.32;;;2.78;;
2434;SDS011;1228;51.022;6.764;2023-08-01T12:18:42;3.55;;;2.50;;
2434;SDS011;1228;51.022;6.764;2023-08-01T12:21:09;3.28;;;2.90;;
2434;SDS011;1228;51.022;6.764;2023-08-01T12:23:35;3.20;;;2.90;;
2434;SDS011;1228;51.022;6.764;2023-08-01T12:26:01;4.32;;;3.00;;
2434;SDS011;1228;51.022;6.764;2023-08-01T12:28:26;5.13;;;4.00;;
2434;SDS011;1228;51.022;6.764;2023-08-01T12:30:52;5.60;;;3.80;;
2434;SDS011;1228;51.022;6.764;2023-08-01T12:33:18;8.43;;;4.70;;
2434;SDS011;1228;51.022;6.764;2023-08-01T12:35:44;4.77;;;3.63;;
2434;SDS011;1228;51.022;6.764;2023-08-01T12:38:09;6.63;;;4.37;;
2434;SDS011;1228;51.022;6.764;2023-08-01T12:40:35;6.50;;;4.10;;
2434;SDS011;1228;51.022;6.764;2023-08-01T12:43:01;5.70;;;4.77;;
2434;SDS011;1228;51.022;6.764;2023-08-01T12:45:26;6.67;;;4.20;;
2434;SDS011;1228;51.022;6.764;2023-08-01T12:47:52;4.70;;;4.20;;
2434;SDS011;1228;51.022;6.764;2023-08-01T12:50:18;5.53;;;4.30;;
2434;SDS011;1228;51.022;6.764;2023-08-01T12:52:43;4.63;;;4.00;;
2434;SDS011;1228;51.022;6.764;2023-08-01T12:55:09;4.27;;;3.90;;
2434;SDS011;1228;51.022;6.764;2023-08-01T12:57:35;3.40;;;3.20;;
2434;SDS011;1228;51.022;6.764;2023-08-01T13:00:00;3.73;;;3.10;;
2434;SDS011;1228;51.022;6.764;2023-08-01T13:02:26;4.90;;;4.07;;
2434;SDS011;1228;51.022;6.764;2023-08-01T13:04:52;4.83;;;3.50;;
2434;SDS011;1228;51.022;6.764;2023-08-01T13:07:18;4.90;;;3.57;;
2434;SDS011;1228;51.022;6.764;2023-08-01T13:09:43;4.60;;;3.57;;
2434;SDS011;1228;51.022;6.764;2023-08-01T13:12:10;3.80;;;3.50;;
2434;SDS011;1228;51.022;6.764;2023-08-01T13:14:35;4.23;;;3.83;;
2434;SDS011;1228;51.022;6.764;2023-08-01T13:17:01;4.60;;;3.37;;
2434;SDS011;1228;51.022;6.764;2023-08-01T13:19:27;5.33;;;4.00;;
2434;SDS011;1228;51.022;6.764;2023-08-01T13:21:53;4.43;;;3.70;;
2434;SDS011;1228;51.022;6.764;2023-08-01T13:24:18;5.90;;;4.17;;
2434;SDS011;1228;51.022;6.764;2023-08-01T13:26:44;3.93;;;3.60;;
2434;SDS011;1228;51.022;6.764;2023-08-01T13:29:10;3.75;;;3.45;;
2434;SDS011;1228;51.022;6.764;2023-08-01T13:31:35;4.70;;;4.28;;
2434;SDS011;1228;51.022;6.764;2023-08-01T13:34:01;5.40;;;5.00;;
2434;SDS011;1228;51.022;6.764;2023-08-01T13:36:26;5.32;;;4.82;;
2434;SDS011;1228;51.022;6.764;2023-08-01T13:38:52;3.60;;;3.30;;
2434;SDS011;1228;51.022;6.764;2023-08-01T13:41:18;5.32;;;3.70;;
2434;SDS011;1228;51.022;6.764;2023-08-01T13:43:43;3.47;;;3.17;;
2434;SDS011;1228;51.022;6.764;2023-08-01T13:46:13;4.13;;;3.50;;
2434;SDS011;1228;51.022;6.764;2023-08-01T13:48:40;5.55;;;3.60;;
2434;SDS011;1228;51.022;6.764;2023-08-01T13:51:06;3.85;;;3.30;;
2434;SDS011;1228;51.022;6.764;2023-08-01T13:53:32;3.78;;;3.42;;
2434;SDS011;1228;51.022;6.764;2023-08-01T13:55:58;3.90;;;3.47;;
2434;SDS011;1228;51.022;6.764;2023-08-01T13:58:24;5.70;;;4.28;;
2434;SDS011;1228;51.022;6.764;2023-08-01T14:00:50;3.72;;;3.38;;
2434;SDS011;1228;51.022;6.764;2023-08-01T14:03:15;7.60;;;4.07;;
2434;SDS011;1228;51.022;6.764;2023-08-01T14:05:41;3.22;;;2.92;;
2434;SDS011;1228;51.022;6.764;2023-08-01T14:08:07;4.15;;;3.40;;
2434;SDS011;1228;51.022;6.764;2023-08-01T14:10:32;6.80;;;3.92;;
2434;SDS011;1228;51.022;6.764;2023-08-01T14:12:58;8.07;;;4.13;;
2434;SDS011;1228;51.022;6.764;2023-08-01T14:15:23;4.43;;;4.00;;
2434;SDS011;1228;51.022;6.764;2023-08-01T14:17:49;5.47;;;3.75;;
2434;SDS011;1228;51.022;6.764;2023-08-01T14:20:15;5.88;;;3.33;;
2434;SDS011;1228;51.022;6.764;2023-08-01T14:22:41;3.83;;;3.53;;
2434;SDS011;1228;51.022;6.764;2023-08-01T14:25:07;5.53;;;3.80;;
2434;SDS011;1228;51.022;6.764;2023-08-01T14:27:34;4.00;;;3.60;;
2434;SDS011;1228;51.022;6.764;2023-08-01T14:29:59;3.33;;;3.03;;
2434;SDS011;1228;51.022;6.764;2023-08-01T14:32:27;4.03;;;3.72;;
2434;SDS011;1228;51.022;6.764;2023-08-01T14:34:52;5.05;;;3.45;;
2434;SDS011;1228;51.022;6.764;2023-08-01T14:37:18;5.50;;;4.00;;
2434;SDS011;1228;51.022;6.764;2023-08-01T14:39:43;3.50;;;3.20;;
2434;SDS011;1228;51.022;6.764;2023-08-01T14:42:09;4.93;;;3.28;;
2434;SDS011;1228;51.022;6.764;2023-08-01T14:44:35;4.30;;;3.28;;
2434;SDS011;1228;51.022;6.764;2023-08-01T14:47:00;4.85;;;4.40;;
2434;SDS011;1228;51.022;6.764;2023-08-01T14:49:26;4.93;;;3.08;;
2434;SDS011;1228;51.022;6.764;2023-08-01T14:51:54;3.28;;;2.97;;
2434;SDS011;1228;51.022;6.764;2023-08-01T14:54:19;5.07;;;3.17;;
2434;SDS011;1228;51.022;6.764;2023-08-01T14:56:45;5.53;;;3.50;;
2434;SDS011;1228;51.022;6.764;2023-08-01T14:59:11;3.92;;;2.70;;
2434;SDS011;1228;51.022;6.764;2023-08-01T15:01:36;4.07;;;3.50;;
2434;SDS011;1228;51.022;6.764;2023-08-01T15:04:03;3.42;;;2.70;;
2434;SDS011;1228;51.022;6.764;2023-08-01T15:06:28;3.17;;;2.92;;
2434;SDS011;1228;51.022;6.764;2023-08-01T15:08:54;4.55;;;3.22;;
2434;SDS011;1228;51.022;6.764;2023-08-01T15:11:20;3.83;;;2.78;;